sensor_id;sensor_type;location;lat;lon;timestamp;P1;durP1;ratioP1;P2;durP2;ratioP2
16624;SDS011;8426;48.496;9.098;2022-09-27T00:02:26;2.60;;;0.40;;
16624;SDS011;8426;48.496;9.098;2022-09-27T00:07:31;2.65;;;0.30;;
16624;SDS011;8426;48.496;9.098;2022-09-27T00:12:34;0.45;;;0.45;;
16624;SDS011;8426;48.496;9.098;2022-09-27T00:17:39;0.57;;;0.22;;
16624;SDS011;8426;48.496;9.098;2022-09-27T00:22:43;0.30;;;0.30;;
16624;SDS011;8426;48.496;9.098;2022-09-27T00:27:48;0.77;;;0.30;;
16624;SDS011;8426;48.496;9.098;2022-09-27T00:32:53;0.65;;;0.32;;
16624;SDS011;8426;48.496;9.098;2022-09-27T00:37:57;1.00;;;0.40;;
16624;SDS011;8426;48.496;9.098;2022-09-27T00:43:00;0.30;;;0.30;;
16624;SDS011;8426;48.496;9.098;2022-09-27T00:48:04;0.47;;;0.32;;
16624;SDS011;8426;48.496;9.098;2022-09-27T00:53:10;0.20;;;0.20;;
16624;SDS011;8426;48.496;9.098;2022-09-27T00:58:17;0.35;;;0.30;;
16624;SDS011;8426;48.496;9.098;2022-09-27T01:03:29;0.20;;;0.20;;
16624;SDS011;8426;48.496;9.098;2022-09-27T01:08:37;0.40;;;0.38;;
16624;SDS011;8426;48.496;9.098;2022-09-27T01:13:42;0.20;;;0.20;;
16624;SDS011;8426;48.496;9.098;2022-09-27T01:19:00;0.20;;;0.20;;
16624;SDS011;8426;48.496;9.098;2022-09-27T01:24:21;0.25;;;0.25;;
16624;SDS011;8426;48.496;9.098;2022-09-27T01:29:41;2.17;;;0.28;;
16624;SDS011;8426;48.496;9.098;2022-09-27T01:35:00;0.25;;;0.20;;
16624;SDS011;8426;48.496;9.098;2022-09-27T01:40:10;1.80;;;0.40;;
16624;SDS011;8426;48.496;9.098;2022-09-27T01:45:22;0.20;;;0.20;;
16624;SDS011;8426;48.496;9.098;2022-09-27T01:50:36;1.55;;;0.40;;
16624;SDS011;8426;48.496;9.098;2022-09-27T01:55:42;0.50;;;0.30;;
16624;SDS011;8426;48.496;9.098;2022-09-27T02:00:48;0.60;;;0.32;;
16624;SDS011;8426;48.496;9.098;2022-09-27T02:05:56;0.50;;;0.30;;
16624;SDS011;8426;48.496;9.098;2022-09-27T02:11:03;5.05;;;0.40;;
16624;SDS011;8426;48.496;9.098;2022-09-27T02:16:14;0.30;;;0.30;;
16624;SDS011;8426;48.496;9.098;2022-09-27T02:21:30;0.28;;;0.20;;
16624;SDS011;8426;48.496;9.098;2022-09-27T02:26:47;1.00;;;0.25;;
16624;SDS011;8426;48.496;9.098;2022-09-27T02:31:57;3.67;;;0.40;;
16624;SDS011;8426;48.496;9.098;2022-09-27T02:37:03;2.58;;;0.38;;
16624;SDS011;8426;48.496;9.098;2022-09-27T02:42:07;0.40;;;0.30;;
16624;SDS011;8426;48.496;9.098;2022-09-27T02:47:28;1.27;;;0.32;;
16624;SDS011;8426;48.496;9.098;2022-09-27T02:52:46;0.60;;;0.30;;
16624;SDS011;8426;48.496;9.098;2022-09-27T02:58:00;0.88;;;0.30;;
16624;SDS011;8426;48.496;9.098;2022-09-27T03:03:13;0.50;;;0.50;;
16624;SDS011;8426;48.496;9.098;2022-09-27T03:08:22;0.30;;;0.30;;
16624;SDS011;8426;48.496;9.098;2022-09-27T03:13:32;0.47;;;0.30;;
16624;SDS011;8426;48.496;9.098;2022-09-27T03:18:57;1.13;;;0.38;;
16624;SDS011;8426;48.496;9.098;2022-09-27T03:24:05;1.70;;;0.85;;
16624;SDS011;8426;48.496;9.098;2022-09-27T03:29:09;2.80;;;0.40;;
16624;SDS011;8426;48.496;9.098;2022-09-27T03:34:13;1.45;;;0.52;;
16624;SDS011;8426;48.496;9.098;2022-09-27T03:39:18;0.32;;;0.32;;
16624;SDS011;8426;48.496;9.098;2022-09-27T03:44:21;5.13;;;0.80;;
16624;SDS011;8426;48.496;9.098;2022-09-27T03:49:24;4.35;;;0.57;;
16624;SDS011;8426;48.496;9.098;2022-09-27T03:54:32;2.60;;;0.77;;
16624;SDS011;8426;48.496;9.098;2022-09-27T03:59:35;3.92;;;0.95;;
16624;SDS011;8426;48.496;9.098;2022-09-27T04:04:41;1.70;;;0.70;;
16624;SDS011;8426;48.496;9.098;2022-09-27T04:09:46;5.50;;;0.80;;
16624;SDS011;8426;48.496;9.098;2022-09-27T04:14:54;7.85;;;1.13;;
16624;SDS011;8426;48.496;9.098;2022-09-27T04:19:58;3.58;;;1.00;;
16624;SDS011;8426;48.496;9.098;2022-09-27T04:25:05;2.90;;;0.68;;
16624;SDS011;8426;48.496;9.098;2022-09-27T04:30:10;4.22;;;0.80;;
16624;SDS011;8426;48.496;9.098;2022-09-27T04:35:14;9.98;;;1.63;;
16624;SDS011;8426;48.496;9.098;2022-09-27T04:40:36;6.28;;;1.10;;
16624;SDS011;8426;48.496;9.098;2022-09-27T04:45:46;3.85;;;1.23;;
16624;SDS011;8426;48.496;9.098;2022-09-27T04:50:54;2.78;;;0.95;;
16624;SDS011;8426;48.496;9.098;2022-09-27T04:56:00;7.00;;;1.45;;
16624;SDS011;8426;48.496;9.098;2022-09-27T05:01:07;1.98;;;0.70;;
16624;SDS011;8426;48.496;9.098;2022-09-27T05:06:10;4.05;;;0.95;;
16624;SDS011;8426;48.496;9.098;2022-09-27T05:11:15;2.42;;;0.77;;
16624;SDS011;8426;48.496;9.098;2022-09-27T05:16:18;6.13;;;0.80;;
16624;SDS011;8426;48.496;9.098;2022-09-27T05:21:21;3.00;;;0.82;;
16624;SDS011;8426;48.496;9.098;2022-09-27T05:26:26;1.92;;;0.80;;
16624;SDS011;8426;48.496;9.098;2022-09-27T05:31:30;4.53;;;0.70;;
16624;SDS011;8426;48.496;9.098;2022-09-27T05:36:33;1.85;;;0.68;;
16624;SDS011;8426;48.496;9.098;2022-09-27T05:41:38;3.45;;;0.70;;
16624;SDS011;8426;48.496;9.098;2022-09-27T05:46:42;2.20;;;0.77;;
16624;SDS011;8426;48.496;9.098;2022-09-27T05:51:46;3.17;;;0.75;;
16624;SDS011;8426;48.496;9.098;2022-09-27T05:56:54;1.83;;;0.60;;
16624;SDS011;8426;48.496;9.098;2022-09-27T06:01:59;3.08;;;0.70;;
16624;SDS011;8426;48.496;9.098;2022-09-27T06:07:02;2.88;;;0.65;;
16624;SDS011;8426;48.496;9.098;2022-09-27T06:12:07;5.18;;;0.82;;
16624;SDS011;8426;48.496;9.098;2022-09-27T06:17:12;5.40;;;0.60;;
16624;SDS011;8426;48.496;9.098;2022-09-27T06:22:15;1.90;;;0.50;;
16624;SDS011;8426;48.496;9.098;2022-09-27T06:27:20;3.38;;;0.93;;
16624;SDS011;8426;48.496;9.098;2022-09-27T06:32:23;1.20;;;0.50;;
16624;SDS011;8426;48.496;9.098;2022-09-27T06:37:26;0.75;;;0.40;;
16624;SDS011;8426;48.496;9.098;2022-09-27T06:42:31;1.33;;;0.30;;
16624;SDS011;8426;48.496;9.098;2022-09-27T06:47:34;0.80;;;0.50;;
16624;SDS011;8426;48.496;9.098;2022-09-27T06:52:38;1.27;;;0.45;;
16624;SDS011;8426;48.496;9.098;2022-09-27T06:57:53;0.63;;;0.40;;
16624;SDS011;8426;48.496;9.098;2022-09-27T07:03:14;1.30;;;0.40;;
16624;SDS011;8426;48.496;9.098;2022-09-27T07:08:18;0.70;;;0.40;;
16624;SDS011;8426;48.496;9.098;2022-09-27T07:13:46;1.27;;;0.35;;
16624;SDS011;8426;48.496;9.098;2022-09-27T07:18:50;0.95;;;0.40;;
16624;SDS011;8426;48.496;9.098;2022-09-27T07:23:54;1.15;;;0.50;;
16624;SDS011;8426;48.496;9.098;2022-09-27T07:28:58;0.40;;;0.40;;
16624;SDS011;8426;48.496;9.098;2022-09-27T07:34:02;0.60;;;0.30;;
16624;SDS011;8426;48.496;9.098;2022-09-27T07:39:05;0.30;;;0.30;;
16624;SDS011;8426;48.496;9.098;2022-09-27T07:44:10;0.38;;;0.38;;
16624;SDS011;8426;48.496;9.098;2022-09-27T07:49:16;1.52;;;0.40;;
16624;SDS011;8426;48.496;9.098;2022-09-27T07:54:20;0.38;;;0.30;;
16624;SDS011;8426;48.496;9.098;2022-09-27T07:59:25;0.73;;;0.40;;
16624;SDS011;8426;48.496;9.098;2022-09-27T08:04:28;0.60;;;0.30;;
16624;SDS011;8426;48.496;9.098;2022-09-27T08:09:31;0.28;;;0.20;;
16624;SDS011;8426;48.496;9.098;2022-09-27T08:14:36;0.35;;;0.25;;
16624;SDS011;8426;48.496;9.098;2022-09-27T08:19:47;2.30;;;0.32;;
16624;SDS011;8426;48.496;9.098;2022-09-27T08:24:51;3.00;;;0.40;;
16624;SDS011;8426;48.496;9.098;2022-09-27T08:29:55;0.32;;;0.20;;
16624;SDS011;8426;48.496;9.098;2022-09-27T08:34:59;0.20;;;0.20;;
16624;SDS011;8426;48.496;9.098;2022-09-27T08:40:03;1.65;;;0.30;;
16624;SDS011;8426;48.496;9.098;2022-09-27T08:45:10;0.65;;;0.30;;
16624;SDS011;8426;48.496;9.098;2022-09-27T08:50:20;1.10;;;0.25;;
16624;SDS011;8426;48.496;9.098;2022-09-27T08:55:29;3.92;;;0.32;;
16624;SDS011;8426;48.496;9.098;2022-09-27T09:00:39;1.73;;;0.60;;
16624;SDS011;8426;48.496;9.098;2022-09-27T09:05:46;3.90;;;0.30;;
16624;SDS011;8426;48.496;9.098;2022-09-27T09:10:54;2.85;;;0.30;;
16624;SDS011;8426;48.496;9.098;2022-09-27T09:16:43;0.68;;;0.50;;
16624;SDS011;8426;48.496;9.098;2022-09-27T09:21:57;2.72;;;0.40;;
16624;SDS011;8426;48.496;9.098;2022-09-27T09:27:05;1.85;;;0.40;;
16624;SDS011;8426;48.496;9.098;2022-09-27T09:32:21;0.60;;;0.40;;
16624;SDS011;8426;48.496;9.098;2022-09-27T09:37:34;0.50;;;0.50;;
16624;SDS011;8426;48.496;9.098;2022-09-27T09:42:41;0.90;;;0.32;;
16624;SDS011;8426;48.496;9.098;2022-09-27T09:47:53;0.85;;;0.45;;
16624;SDS011;8426;48.496;9.098;2022-09-27T09:53:02;0.28;;;0.20;;
16624;SDS011;8426;48.496;9.098;2022-09-27T09:58:18;1.02;;;0.70;;
16624;SDS011;8426;48.496;9.098;2022-09-27T10:03:26;3.95;;;0.63;;
16624;SDS011;8426;48.496;9.098;2022-09-27T10:08:29;2.10;;;0.45;;
16624;SDS011;8426;48.496;9.098;2022-09-27T10:13:33;4.10;;;0.70;;
16624;SDS011;8426;48.496;9.098;2022-09-27T10:18:39;0.95;;;0.50;;
16624;SDS011;8426;48.496;9.098;2022-09-27T10:24:06;0.98;;;0.60;;
16624;SDS011;8426;48.496;9.098;2022-09-27T10:29:22;2.97;;;0.63;;
16624;SDS011;8426;48.496;9.098;2022-09-27T10:34:37;1.42;;;0.60;;
16624;SDS011;8426;48.496;9.098;2022-09-27T10:40:15;1.70;;;0.47;;
16624;SDS011;8426;48.496;9.098;2022-09-27T10:45:29;1.35;;;0.50;;
16624;SDS011;8426;48.496;9.098;2022-09-27T10:50:35;1.42;;;0.50;;
16624;SDS011;8426;48.496;9.098;2022-09-27T10:55:59;1.92;;;0.35;;
16624;SDS011;8426;48.496;9.098;2022-09-27T11:01:07;0.30;;;0.30;;
16624;SDS011;8426;48.496;9.098;2022-09-27T11:06:38;0.95;;;0.30;;
16624;SDS011;8426;48.496;9.098;2022-09-27T11:11:41;1.30;;;0.35;;
16624;SDS011;8426;48.496;9.098;2022-09-27T11:22:19;4.60;;;0.50;;
16624;SDS011;8426;48.496;9.098;2022-09-27T11:27:45;0.75;;;0.30;;
16624;SDS011;8426;48.496;9.098;2022-09-27T11:33:06;0.20;;;0.20;;
16624;SDS011;8426;48.496;9.098;2022-09-27T11:38:29;1.77;;;0.47;;
16624;SDS011;8426;48.496;9.098;2022-09-27T11:43:57;0.43;;;0.20;;
16624;SDS011;8426;48.496;9.098;2022-09-27T11:49:21;1.02;;;0.30;;
16624;SDS011;8426;48.496;9.098;2022-09-27T11:54:53;2.00;;;0.32;;
16624;SDS011;8426;48.496;9.098;2022-09-27T12:00:17;0.80;;;0.40;;
16624;SDS011;8426;48.496;9.098;2022-09-27T12:05:24;0.95;;;0.32;;
16624;SDS011;8426;48.496;9.098;2022-09-27T12:10:34;0.50;;;0.28;;
16624;SDS011;8426;48.496;9.098;2022-09-27T12:15:41;1.87;;;0.30;;
16624;SDS011;8426;48.496;9.098;2022-09-27T12:20:47;0.85;;;0.30;;
16624;SDS011;8426;48.496;9.098;2022-09-27T12:25:54;1.33;;;0.30;;
16624;SDS011;8426;48.496;9.098;2022-09-27T12:31:03;2.15;;;0.32;;
16624;SDS011;8426;48.496;9.098;2022-09-27T12:36:31;1.92;;;0.40;;
16624;SDS011;8426;48.496;9.098;2022-09-27T12:42:02;2.20;;;0.57;;
16624;SDS011;8426;48.496;9.098;2022-09-27T12:47:18;0.25;;;0.25;;
16624;SDS011;8426;48.496;9.098;2022-09-27T12:52:32;1.00;;;0.30;;
16624;SDS011;8426;48.496;9.098;2022-09-27T12:57:41;1.55;;;0.35;;
16624;SDS011;8426;48.496;9.098;2022-09-27T13:03:06;0.55;;;0.22;;
16624;SDS011;8426;48.496;9.098;2022-09-27T13:08:33;0.63;;;0.22;;
16624;SDS011;8426;48.496;9.098;2022-09-27T13:14:09;1.23;;;0.28;;
16624;SDS011;8426;48.496;9.098;2022-09-27T13:19:39;0.35;;;0.20;;
16624;SDS011;8426;48.496;9.098;2022-09-27T13:24:46;0.63;;;0.30;;
16624;SDS011;8426;48.496;9.098;2022-09-27T13:30:41;0.75;;;0.30;;
16624;SDS011;8426;48.496;9.098;2022-09-27T13:36:04;0.28;;;0.20;;
16624;SDS011;8426;48.496;9.098;2022-09-27T13:41:12;0.50;;;0.20;;
16624;SDS011;8426;48.496;9.098;2022-09-27T13:46:20;1.00;;;0.28;;
16624;SDS011;8426;48.496;9.098;2022-09-27T13:51:30;2.10;;;0.30;;
16624;SDS011;8426;48.496;9.098;2022-09-27T13:56:49;0.20;;;0.17;;
16624;SDS011;8426;48.496;9.098;2022-09-27T14:01:58;1.13;;;0.20;;
16624;SDS011;8426;48.496;9.098;2022-09-27T14:07:08;1.20;;;0.15;;
16624;SDS011;8426;48.496;9.098;2022-09-27T14:12:16;2.88;;;0.30;;
16624;SDS011;8426;48.496;9.098;2022-09-27T14:17:23;0.30;;;0.17;;
16624;SDS011;8426;48.496;9.098;2022-09-27T14:22:27;0.40;;;0.20;;
16624;SDS011;8426;48.496;9.098;2022-09-27T14:27:33;0.90;;;0.30;;
16624;SDS011;8426;48.496;9.098;2022-09-27T14:32:46;0.45;;;0.20;;
16624;SDS011;8426;48.496;9.098;2022-09-27T14:37:50;1.13;;;0.30;;
16624;SDS011;8426;48.496;9.098;2022-09-27T14:42:55;0.13;;;0.13;;
16624;SDS011;8426;48.496;9.098;2022-09-27T14:48:15;3.47;;;0.20;;
16624;SDS011;8426;48.496;9.098;2022-09-27T14:53:28;1.35;;;0.25;;
16624;SDS011;8426;48.496;9.098;2022-09-27T14:58:40;0.73;;;0.20;;
16624;SDS011;8426;48.496;9.098;2022-09-27T15:03:50;0.95;;;0.25;;
16624;SDS011;8426;48.496;9.098;2022-09-27T15:08:54;0.10;;;0.10;;
16624;SDS011;8426;48.496;9.098;2022-09-27T15:13:57;1.25;;;0.20;;
16624;SDS011;8426;48.496;9.098;2022-09-27T15:19:11;0.32;;;0.20;;
16624;SDS011;8426;48.496;9.098;2022-09-27T15:24:37;2.22;;;0.30;;
16624;SDS011;8426;48.496;9.098;2022-09-27T15:29:46;1.40;;;0.30;;
16624;SDS011;8426;48.496;9.098;2022-09-27T15:34:53;0.20;;;0.20;;
16624;SDS011;8426;48.496;9.098;2022-09-27T15:39:59;3.25;;;0.30;;
16624;SDS011;8426;48.496;9.098;2022-09-27T15:45:48;1.55;;;0.47;;
16624;SDS011;8426;48.496;9.098;2022-09-27T15:50:54;0.30;;;0.30;;
16624;SDS011;8426;48.496;9.098;2022-09-27T15:56:02;2.25;;;0.40;;
16624;SDS011;8426;48.496;9.098;2022-09-27T16:01:13;1.13;;;0.55;;
16624;SDS011;8426;48.496;9.098;2022-09-27T16:06:20;0.90;;;0.40;;
16624;SDS011;8426;48.496;9.098;2022-09-27T16:11:27;2.80;;;0.40;;
16624;SDS011;8426;48.496;9.098;2022-09-27T16:16:31;1.13;;;0.30;;
16624;SDS011;8426;48.496;9.098;2022-09-27T16:21:37;1.15;;;0.38;;
16624;SDS011;8426;48.496;9.098;2022-09-27T16:26:40;1.02;;;0.38;;
16624;SDS011;8426;48.496;9.098;2022-09-27T16:31:44;2.47;;;0.30;;
16624;SDS011;8426;48.496;9.098;2022-09-27T16:36:50;2.92;;;0.32;;
16624;SDS011;8426;48.496;9.098;2022-09-27T16:41:54;1.40;;;0.35;;
16624;SDS011;8426;48.496;9.098;2022-09-27T16:46:58;0.73;;;0.30;;
16624;SDS011;8426;48.496;9.098;2022-09-27T16:52:03;0.22;;;0.22;;
16624;SDS011;8426;48.496;9.098;2022-09-27T16:57:06;2.92;;;0.60;;
16624;SDS011;8426;48.496;9.098;2022-09-27T17:02:09;0.75;;;0.20;;
16624;SDS011;8426;48.496;9.098;2022-09-27T17:07:14;0.40;;;0.40;;
16624;SDS011;8426;48.496;9.098;2022-09-27T17:12:18;3.00;;;0.30;;
16624;SDS011;8426;48.496;9.098;2022-09-27T17:17:21;1.48;;;0.30;;
16624;SDS011;8426;48.496;9.098;2022-09-27T17:22:29;2.60;;;0.40;;
16624;SDS011;8426;48.496;9.098;2022-09-27T17:27:33;0.60;;;0.40;;
16624;SDS011;8426;48.496;9.098;2022-09-27T17:32:37;2.05;;;0.52;;
16624;SDS011;8426;48.496;9.098;2022-09-27T17:37:41;2.35;;;0.52;;
16624;SDS011;8426;48.496;9.098;2022-09-27T17:42:46;2.70;;;0.50;;
16624;SDS011;8426;48.496;9.098;2022-09-27T17:47:51;4.50;;;0.60;;
16624;SDS011;8426;48.496;9.098;2022-09-27T17:53:15;0.80;;;0.38;;
16624;SDS011;8426;48.496;9.098;2022-09-27T17:58:18;2.05;;;0.52;;
16624;SDS011;8426;48.496;9.098;2022-09-27T18:03:22;0.50;;;0.50;;
16624;SDS011;8426;48.496;9.098;2022-09-27T18:08:27;0.52;;;0.40;;
16624;SDS011;8426;48.496;9.098;2022-09-27T18:13:32;0.75;;;0.40;;
16624;SDS011;8426;48.496;9.098;2022-09-27T18:18:42;1.95;;;0.40;;
16624;SDS011;8426;48.496;9.098;2022-09-27T18:23:52;0.90;;;0.50;;
16624;SDS011;8426;48.496;9.098;2022-09-27T18:28:58;1.00;;;0.73;;
16624;SDS011;8426;48.496;9.098;2022-09-27T18:34:03;0.52;;;0.45;;
16624;SDS011;8426;48.496;9.098;2022-09-27T18:39:24;0.57;;;0.47;;
16624;SDS011;8426;48.496;9.098;2022-09-27T18:44:28;0.73;;;0.50;;
16624;SDS011;8426;48.496;9.098;2022-09-27T18:49:31;0.88;;;0.50;;
16624;SDS011;8426;48.496;9.098;2022-09-27T18:54:36;2.92;;;0.60;;
16624;SDS011;8426;48.496;9.098;2022-09-27T18:59:41;2.80;;;0.70;;
16624;SDS011;8426;48.496;9.098;2022-09-27T19:04:46;1.13;;;0.70;;
16624;SDS011;8426;48.496;9.098;2022-09-27T19:09:54;1.83;;;0.65;;
16624;SDS011;8426;48.496;9.098;2022-09-27T19:14:57;1.67;;;0.50;;
16624;SDS011;8426;48.496;9.098;2022-09-27T19:20:03;1.05;;;0.50;;
16624;SDS011;8426;48.496;9.098;2022-09-27T19:25:12;3.50;;;0.40;;
16624;SDS011;8426;48.496;9.098;2022-09-27T19:30:19;1.15;;;0.40;;
16624;SDS011;8426;48.496;9.098;2022-09-27T19:35:22;0.20;;;0.20;;
16624;SDS011;8426;48.496;9.098;2022-09-27T19:40:28;0.22;;;0.22;;
16624;SDS011;8426;48.496;9.098;2022-09-27T19:45:35;1.13;;;0.30;;
16624;SDS011;8426;48.496;9.098;2022-09-27T19:50:53;0.43;;;0.22;;
16624;SDS011;8426;48.496;9.098;2022-09-27T19:55:58;2.38;;;0.50;;
16624;SDS011;8426;48.496;9.098;2022-09-27T20:01:03;1.30;;;0.38;;
16624;SDS011;8426;48.496;9.098;2022-09-27T20:06:10;0.77;;;0.30;;
16624;SDS011;8426;48.496;9.098;2022-09-27T20:11:16;0.38;;;0.38;;
16624;SDS011;8426;48.496;9.098;2022-09-27T20:16:22;1.00;;;0.50;;
16624;SDS011;8426;48.496;9.098;2022-09-27T20:21:27;1.33;;;0.85;;
16624;SDS011;8426;48.496;9.098;2022-09-27T20:26:36;0.88;;;0.57;;
16624;SDS011;8426;48.496;9.098;2022-09-27T20:31:40;1.80;;;0.85;;
16624;SDS011;8426;48.496;9.098;2022-09-27T20:37:05;1.30;;;0.70;;
16624;SDS011;8426;48.496;9.098;2022-09-27T20:42:10;0.82;;;0.70;;
16624;SDS011;8426;48.496;9.098;2022-09-27T20:47:13;0.98;;;0.63;;
16624;SDS011;8426;48.496;9.098;2022-09-27T20:52:17;1.77;;;0.90;;
16624;SDS011;8426;48.496;9.098;2022-09-27T20:57:22;1.42;;;0.80;;
16624;SDS011;8426;48.496;9.098;2022-09-27T21:02:46;2.05;;;0.60;;
16624;SDS011;8426;48.496;9.098;2022-09-27T21:07:51;1.35;;;0.90;;
16624;SDS011;8426;48.496;9.098;2022-09-27T21:12:58;1.00;;;0.60;;
16624;SDS011;8426;48.496;9.098;2022-09-27T21:18:06;0.90;;;0.70;;
16624;SDS011;8426;48.496;9.098;2022-09-27T21:23:10;1.85;;;0.82;;
16624;SDS011;8426;48.496;9.098;2022-09-27T21:28:15;0.60;;;0.50;;
16624;SDS011;8426;48.496;9.098;2022-09-27T21:33:18;0.50;;;0.40;;
16624;SDS011;8426;48.496;9.098;2022-09-27T21:38:22;2.33;;;0.50;;
16624;SDS011;8426;48.496;9.098;2022-09-27T21:43:28;4.72;;;0.63;;
16624;SDS011;8426;48.496;9.098;2022-09-27T21:48:36;0.80;;;0.40;;
16624;SDS011;8426;48.496;9.098;2022-09-27T21:53:42;0.82;;;0.43;;
16624;SDS011;8426;48.496;9.098;2022-09-27T21:58:55;0.95;;;0.40;;
16624;SDS011;8426;48.496;9.098;2022-09-27T22:04:00;0.40;;;0.40;;
16624;SDS011;8426;48.496;9.098;2022-09-27T22:09:12;0.75;;;0.55;;
16624;SDS011;8426;48.496;9.098;2022-09-27T22:14:18;1.17;;;0.50;;
16624;SDS011;8426;48.496;9.098;2022-09-27T22:19:22;0.82;;;0.40;;
16624;SDS011;8426;48.496;9.098;2022-09-27T22:24:25;2.42;;;0.60;;
16624;SDS011;8426;48.496;9.098;2022-09-27T22:29:30;1.17;;;0.40;;
16624;SDS011;8426;48.496;9.098;2022-09-27T22:34:33;0.93;;;0.43;;
16624;SDS011;8426;48.496;9.098;2022-09-27T22:39:43;1.00;;;0.60;;
16624;SDS011;8426;48.496;9.098;2022-09-27T22:44:47;2.53;;;0.70;;
16624;SDS011;8426;48.496;9.098;2022-09-27T22:49:51;0.65;;;0.50;;
16624;SDS011;8426;48.496;9.098;2022-09-27T22:54:54;0.65;;;0.50;;
16624;SDS011;8426;48.496;9.098;2022-09-27T22:59:59;0.52;;;0.50;;
16624;SDS011;8426;48.496;9.098;2022-09-27T23:05:02;0.95;;;0.70;;
16624;SDS011;8426;48.496;9.098;2022-09-27T23:10:06;1.05;;;0.60;;
16624;SDS011;8426;48.496;9.098;2022-09-27T23:15:11;0.50;;;0.50;;
16624;SDS011;8426;48.496;9.098;2022-09-27T23:20:15;0.95;;;0.50;;
16624;SDS011;8426;48.496;9.098;2022-09-27T23:25:19;1.70;;;0.60;;
16624;SDS011;8426;48.496;9.098;2022-09-27T23:30:25;2.22;;;0.60;;
16624;SDS011;8426;48.496;9.098;2022-09-27T23:35:30;1.33;;;0.60;;
16624;SDS011;8426;48.496;9.098;2022-09-27T23:40:41;1.33;;;0.55;;
16624;SDS011;8426;48.496;9.098;2022-09-27T23:45:50;0.57;;;0.50;;
16624;SDS011;8426;48.496;9.098;2022-09-27T23:50:58;2.47;;;0.40;;
16624;SDS011;8426;48.496;9.098;2022-09-27T23:56:11;2.30;;;0.50;;
